nws-alerts: Checking more than four warning/county codes can delay the loading of your pages. You should use a cron job to get the data.

Nearby METAR Reports

 

KMLE - Omaha/Millard, Nebraska, USA
Distance from station: NE 1mi, 2km
Updated: Sat, 21-May-2022 11:15pm CDT
Clear
Clear
 Wind from calm
Wind: Calm
Temperature: 45°F , 7°C
Dew Point: 36°F , 2°C
Humidity: 71%
Barometer: 30.29 inHg , 1025.7 hPa
Clouds: Clear
Visibility: 10 miles , 16 km
2022/05/22 04:15 KMLE 220415Z AUTO 00000KT 10SM CLR 07/02 A3029 RMK AO2 T00720017
KOFF - Offutt Afb/Belle, Nebraska, USA
Distance from station: ESE 12mi, 20km
Updated: Sat, 21-May-2022 10:56pm CDT
Clear
Clear
 Wind from calm
Wind: Calm
Temperature: 48°F , 9°C
Dew Point: 30°F , -1°C
Humidity: 50%
Barometer: 30.29 inHg , 1025.7 hPa
Clouds: Clear
Visibility: 10 miles , 16 km
2022/05/22 03:56 KOFF 220356Z 00000KT 10SM CLR 09/M01 A3029 RMK AO2A SLP265 T00891015 PWINO PNO FZRANO TSNO VISNO RWY12 CHINO RWY12 $
 
KOMA - Omaha/Eppley, Nebraska, USA
Distance from station: NE 15mi, 24km
Updated: Sat, 21-May-2022 10:52pm CDT
Clear
Clear
 Wind from N
Wind: N 3 mph , 6 km/h
Temperature: 48°F , 9°C
Dew Point: 34°F , 1°C
Humidity: 58%
Barometer: 30.27 inHg , 1025.1 hPa
Clouds: Clear
Visibility: 10 miles , 16 km
2022/05/22 03:52 KOMA 220352Z 35003KT 10SM CLR 09/01 A3027 RMK AO2 SLP254 T00890006
KBTA - Blair Muni, Nebraska, USA
Distance from station: N 16mi, 25km
Updated: Sat, 21-May-2022 11:35pm CDT
Clear
Clear
 Wind from NW
Wind: NW 7 mph , 11 km/h
Temperature: 45°F , 7°C
Wind Chill: 41°F , 5°C
Dew Point: 30°F , -1°C
Humidity: 57%
Barometer: 30.28 inHg , 1025.4 hPa
Clouds: Clear
Visibility: 10 miles , 16 km
2022/05/22 04:35 KBTA 220435Z AUTO 31006KT 10SM CLR 07/M01 A3028 RMK AO2 T00701013
 
KCBF - Council Bluffs, Iowa, USA
Distance from station: ENE 20mi, 32km
Updated: Sat, 21-May-2022 11:35pm CDT
Clear
Clear
 Wind from calm
Wind: Calm
Temperature: 45°F , 7°C
Dew Point: 27°F , -3°C
Humidity: 49%
Barometer: 30.26 inHg , 1024.7 hPa
Clouds: Clear
Visibility: 10 miles , 16 km
2022/05/22 04:35 KCBF 220435Z AUTO 00000KT 10SM CLR 07/M03 A3026 RMK AO2
KPMV - Plattsmouth Muni, Nebraska, USA
Distance from station: SE 20mi, 32km
Updated: Sat, 21-May-2022 11:35pm CDT
Clear
Clear
 Wind from calm
Wind: Calm
Temperature: 48°F , 9°C
Dew Point: 30°F , -1°C
Humidity: 50%
Barometer: 30.30 inHg , 1026.1 hPa
Clouds: Clear
Visibility: 10 miles , 16 km
2022/05/22 04:35 KPMV 220435Z AUTO 00000KT 10SM CLR 09/M01 A3030 RMK AO2 T00851015
 
KAHQ - Wahoo, Nebraska, USA
Distance from station: W 25mi, 40km
Updated: Sat, 21-May-2022 11:35pm CDT
Clear
Clear
 Wind from NW
Wind: NW 7 mph , 11 km/h
Temperature: 45°F , 7°C
Wind Chill: 41°F , 5°C
Dew Point: 32°F , 0°C
Humidity: 61%
Barometer: 30.30 inHg , 1026.1 hPa
Clouds: Clear
Visibility: 10 miles , 16 km
2022/05/22 04:35 KAHQ 220435Z AUTO 32006KT 10SM CLR 07/00 A3030 RMK AO2 T00661003
KFET - Fremont Muni Arp, Nebraska, USA
Distance from station: NW 27mi, 43km
Updated: Sat, 21-May-2022 11:35pm CDT
Clear
Clear
 Wind from calm
Wind: Calm
Temperature: 45°F , 7°C
Dew Point: 32°F , 0°C
Humidity: 61%
Barometer: 30.30 inHg , 1026.1 hPa
Clouds: Clear
Visibility: 10 miles , 16 km
2022/05/22 04:35 KFET 220435Z AUTO 00000KT 10SM CLR 07/00 A3030 RMK AO2 T00681001
 
KTQE - Tekamah, Nebraska, USA
Distance from station: N 40mi, 64km
Updated: Sat, 21-May-2022 10:54pm CDT
Clear
Clear
 Wind from WNW
Wind: WNW 5 mph , 7 km/h
Temperature: 46°F , 8°C
Wind Chill: 44°F , 7°C
Dew Point: 32°F , 0°C
Humidity: 57%
Barometer: 30.28 inHg , 1025.4 hPa
Clouds: Clear
Visibility: 10 miles , 16 km
2022/05/22 03:54 KTQE 220354Z AUTO 29004KT 10SM CLR 08/00 A3028 RMK AO2 SLP253 T00780000
KLNK - Lincoln, Nebraska, USA
Distance from station: SW 41mi, 65km
Updated: Sat, 21-May-2022 10:54pm CDT
Clear
Clear
 Wind from NW
Wind: NW 5 mph , 7 km/h
Temperature: 48°F , 9°C
Wind Chill: 46°F , 8°C
Dew Point: 30°F , -1°C
Humidity: 50%
Barometer: 30.30 inHg , 1026.1 hPa
Clouds: Clear
Visibility: 10 miles , 16 km
2022/05/22 03:54 KLNK 220354Z AUTO 31004KT 10SM CLR 09/M01 A3030 RMK AO2 SLP263 T00941006
 
KAFK - Nebraska City, Nebraska, USA
Distance from station: SSE 43mi, 70km
Updated: Sat, 21-May-2022 11:15pm CDT
Clear
Clear
 Wind from NNW
Wind: NNW 6 mph , 9 km/h
Temperature: 46°F , 8°C
Wind Chill: 43°F , 6°C
Dew Point: 30°F , -1°C
Humidity: 53%
Barometer: 30.29 inHg , 1025.7 hPa
Clouds: Clear
Visibility: 10 miles , 16 km
2022/05/22 04:15 KAFK 220415Z AUTO 34005KT 10SM CLR 08/M01 A3029 RMK AO2 T00781006
KRDK - Red Oak, Iowa, USA
Distance from station: ESE 47mi, 75km
Updated: Sat, 21-May-2022 11:35pm CDT
Clear
Clear
 Wind from calm
Wind: Calm
Temperature: 43°F , 6°C
Dew Point: 32°F , 0°C
Humidity: 66%
Barometer: 30.29 inHg , 1025.7 hPa
Clouds: Clear
Visibility: 10 miles , 16 km
2022/05/22 04:35 KRDK 220435Z AUTO 00000KT 10SM CLR 06/00 A3029 RMK AO2
 
KSDA - Shenandoah Muni, Iowa, USA
Distance from station: SE 48mi, 77km
Updated: Sat, 21-May-2022 11:35pm CDT
Clear
Clear
 Wind from calm
Wind: Calm
Temperature: 43°F , 6°C
Dew Point: 34°F , 1°C
Humidity: 71%
Barometer: 30.28 inHg , 1025.4 hPa
Clouds: Clear
Visibility: 10 miles , 16 km
2022/05/22 04:35 KSDA 220435Z AUTO 00000KT 10SM CLR 06/01 A3028 RMK AO2
KHNR - Harlan Muni, Iowa, USA
Distance from station: NE 49mi, 80km
Updated: Sat, 21-May-2022 11:35pm CDT
Clear
Clear
 Wind from calm
Wind: Calm
Temperature: 41°F , 5°C
Dew Point: 32°F , 0°C
Humidity: 70%
Barometer: 30.28 inHg , 1025.4 hPa
Clouds: Clear
Visibility: 10 miles , 16 km
2022/05/22 04:35 KHNR 220435Z AUTO 00000KT 10SM CLR 05/M00 A3028 RMK A01